North Miami Beach, Florida
Current Conditions -  °F | °C
As of 4:53 AM on Thursday 23 Oct 2014 (Local Time) from KHWO Reporting Station
Light Rain Light Rain  
Wind Chill: 74°   Ceiling: 6000
Heat Index: 74°   Visibility: 10mi
Dew Point: 71°   Wind: 5mph
Humidity: 91%   Direction: 310°NW
Pressure: 29.9"   Gusts: NA
Location:  25.9339°N, 80.1467°W
Report Text: KHWO 230853Z AUTO 31004KT 10SM -RA FEW031 BKN060 OVC070 23/22 A2990 RMK AO2 RAB41 SLP125 P0000 60000 T02330217 55008
Loading
Personal Weather Stations






























Interactive Weather Map
Tropical Storm Tracking
New forecast layout! Learn more

10-Day Weather Forecast

Advertisements
Track Severe Weather on mobile